Time;durP1;ratioP1;P1;durP2;ratioP2;P2;SDS_P1;SDS_P2;PMS_P1;PMS_P2;Temp;Humidity;BMP_temperature;BMP_pressure;BME280_temperature;BME280_humidity;BME280_pressure;Samples;Min_cycle;Max_cycle;Signal;HPM_P1;HPM_P2
2022/05/07 00:01:51;;;;;;;3.95;3.58;;;20.90;51.10;;;;;;4943423;29;20043;-60
2022/05/07 00:04:16;;;;;;;3.72;3.42;;;20.90;51.00;;;;;;4946320;28;20036;-58
2022/05/07 00:06:42;;;;;;;4.10;3.72;;;20.90;51.00;;;;;;4946361;28;20051;-59
2022/05/07 00:09:07;;;;;;;4.00;3.70;;;20.90;51.00;;;;;;4945068;28;20118;-60
2022/05/07 00:11:33;;;;;;;4.43;4.03;;;20.90;51.00;;;;;;4945857;28;20053;-59
2022/05/07 00:13:59;;;;;;;4.43;4.03;;;20.90;51.00;;;;;;4943726;29;20043;-60
2022/05/07 00:19:08;;;;;;;4.70;4.00;;;20.90;50.90;;;;;;4943732;29;20102;-58
2022/05/07 00:21:34;;;;;;;3.80;3.42;;;20.90;51.00;;;;;;4946483;28;20051;-59
2022/05/07 00:23:59;;;;;;;3.75;3.45;;;20.90;50.90;;;;;;4944167;28;20054;-60
2022/05/07 00:26:25;;;;;;;4.45;4.05;;;20.90;50.90;;;;;;4946216;28;20035;-58
2022/05/07 00:28:50;;;;;;;4.05;3.63;;;20.90;50.90;;;;;;4945581;28;20809;-60
2022/05/07 00:31:16;;;;;;;3.53;3.22;;;20.90;50.90;;;;;;4945070;28;20408;-59
2022/05/07 00:33:41;;;;;;;4.03;3.63;;;20.80;50.80;;;;;;4957961;28;20392;-58
2022/05/07 00:36:07;;;;;;;3.80;3.50;;;20.90;50.90;;;;;;4946289;29;20480;-59
2022/05/07 00:38:32;;;;;;;4.50;3.90;;;20.90;50.90;;;;;;4944851;29;20051;-61
2022/05/07 00:40:59;;;;;;;4.32;4.03;;;20.80;50.90;;;;;;4946263;28;20051;-60
2022/05/07 00:43:24;;;;;;;4.50;3.40;;;20.80;50.80;;;;;;4946092;28;20924;-60
2022/05/07 00:45:56;;;;;;;4.55;3.80;;;20.80;50.80;;;;;;4945108;28;20035;-59
2022/05/07 00:48:22;;;;;;;4.30;3.97;;;20.90;50.80;;;;;;4946036;28;20043;-59
2022/05/07 00:53:34;;;;;;;4.53;3.78;;;20.80;50.80;;;;;;4943143;29;20055;-60
2022/05/07 00:55:59;;;;;;;4.15;3.78;;;20.80;50.80;;;;;;4945168;29;20039;-59
2022/05/07 00:58:25;;;;;;;4.30;3.92;;;20.80;50.80;;;;;;4945230;28;20070;-62
2022/05/07 01:00:53;;;;;;;4.07;3.70;;;20.80;50.70;;;;;;4944766;28;20039;-59
2022/05/07 01:03:19;;;;;;;5.13;3.78;;;20.80;50.80;;;;;;4944838;28;20039;-61
2022/05/07 01:05:45;;;;;;;5.13;4.18;;;20.80;50.80;;;;;;4944250;28;20463;-62
2022/05/07 01:08:12;;;;;;;4.10;3.70;;;20.80;50.80;;;;;;4949471;28;20039;-57
2022/05/07 01:10:38;;;;;;;4.20;3.90;;;20.80;50.80;;;;;;4944015;28;20039;-61
2022/05/07 01:13:04;;;;;;;4.63;4.10;;;20.80;50.80;;;;;;4944106;28;20118;-59
2022/05/07 01:15:30;;;;;;;4.53;4.13;;;20.80;50.80;;;;;;4944154;28;20065;-58
2022/05/07 01:17:56;;;;;;;4.68;4.18;;;20.80;50.80;;;;;;4945997;28;20047;-60
2022/05/07 01:20:22;;;;;;;3.90;3.60;;;20.80;50.80;;;;;;4943267;28;20043;-59
2022/05/07 01:22:48;;;;;;;4.60;4.20;;;20.80;50.80;;;;;;4944993;28;20035;-58
2022/05/07 01:25:14;;;;;;;4.78;4.30;;;20.80;50.80;;;;;;4944273;29;20404;-60
2022/05/07 01:27:39;;;;;;;4.85;4.43;;;20.80;50.80;;;;;;4944104;28;20043;-59
2022/05/07 01:30:06;;;;;;;4.05;3.75;;;20.80;50.80;;;;;;4944483;28;20583;-59
2022/05/07 01:32:31;;;;;;;4.60;4.20;;;20.80;50.80;;;;;;4942973;29;20043;-59
2022/05/07 01:34:57;;;;;;;4.93;4.45;;;20.80;50.70;;;;;;4943807;28;20914;-59
2022/05/07 01:37:23;;;;;;;5.28;4.40;;;20.80;50.70;;;;;;4945267;29;20043;-59
2022/05/07 01:39:48;;;;;;;5.25;4.68;;;20.80;50.80;;;;;;4940696;29;20039;-60
2022/05/07 01:42:14;;;;;;;5.10;4.65;;;20.80;50.80;;;;;;4943434;28;20118;-60
2022/05/07 01:44:39;;;;;;;5.22;4.82;;;20.80;50.80;;;;;;4950033;28;20672;-58
2022/05/07 01:49:49;;;;;;;6.40;4.70;;;20.80;50.80;;;;;;4943750;29;20043;-60
2022/05/07 01:52:15;;;;;;;4.95;4.40;;;20.80;50.80;;;;;;4944272;28;20040;-61
2022/05/07 01:54:41;;;;;;;4.70;4.30;;;20.80;50.80;;;;;;4944929;28;20044;-60
2022/05/07 01:57:08;;;;;;;6.55;4.65;;;20.80;50.80;;;;;;4943725;28;20074;-58
2022/05/07 01:59:34;;;;;;;5.15;4.65;;;20.80;50.80;;;;;;4944161;28;20050;-60
2022/05/07 02:01:59;;;;;;;4.95;4.53;;;20.80;50.80;;;;;;4938083;28;20459;-61
2022/05/07 02:04:25;;;;;;;5.72;4.43;;;20.80;50.80;;;;;;4944324;28;20423;-62
2022/05/07 02:06:51;;;;;;;5.07;4.60;;;20.70;50.70;;;;;;4945135;29;20539;-59
2022/05/07 02:09:18;;;;;;;7.47;4.20;;;20.80;50.80;;;;;;4947479;29;20039;-58
2022/05/07 02:11:44;;;;;;;4.68;4.15;;;20.70;50.70;;;;;;4947822;28;20047;-59
2022/05/07 02:14:10;;;;;;;4.63;4.20;;;20.70;50.70;;;;;;4948472;28;20043;-58
2022/05/07 02:16:35;;;;;;;5.00;4.32;;;20.80;50.90;;;;;;4945891;28;20790;-61
2022/05/07 02:19:01;;;;;;;4.78;4.00;;;20.70;50.70;;;;;;4947633;29;20031;-59
2022/05/07 02:21:28;;;;;;;4.72;4.32;;;20.80;50.80;;;;;;4940145;28;20452;-58
2022/05/07 02:23:53;;;;;;;5.53;4.85;;;20.70;50.70;;;;;;4946955;29;20684;-58
2022/05/07 02:26:19;;;;;;;4.60;4.15;;;20.70;50.70;;;;;;4947321;28;20035;-60
2022/05/07 02:28:44;;;;;;;4.82;4.40;;;20.80;50.80;;;;;;4947530;28;20038;-58
2022/05/07 02:31:10;;;;;;;4.90;4.50;;;20.80;50.80;;;;;;4946449;28;20043;-60
2022/05/07 02:33:36;;;;;;;4.60;4.22;;;20.70;50.70;;;;;;4947818;28;20126;-61
2022/05/07 02:36:01;;;;;;;5.30;4.80;;;20.70;50.70;;;;;;4946576;28;20504;-60
2022/05/07 02:38:27;;;;;;;4.47;4.07;;;20.70;50.80;;;;;;4946564;29;20279;-60
2022/05/07 02:43:36;;;;;;;4.57;4.22;;;20.70;50.70;;;;;;4948181;29;20066;-61
2022/05/07 02:46:02;;;;;;;4.53;4.13;;;20.70;50.80;;;;;;4946377;28;20039;-58
2022/05/07 02:48:27;;;;;;;5.03;4.53;;;20.70;50.80;;;;;;4948078;28;20047;-58
2022/05/07 02:50:53;;;;;;;4.78;4.30;;;20.70;50.80;;;;;;4947899;28;20038;-59
2022/05/07 02:53:18;;;;;;;5.03;4.63;;;20.70;50.80;;;;;;4946897;28;20051;-61
2022/05/07 02:55:44;;;;;;;4.38;3.97;;;20.70;50.70;;;;;;4947867;28;20492;-59
2022/05/07 02:58:09;;;;;;;4.95;4.47;;;20.70;50.70;;;;;;4947647;28;20035;-59
2022/05/07 03:00:35;;;;;;;4.75;4.35;;;20.70;50.70;;;;;;4947134;28;20070;-62
2022/05/07 03:03:00;;;;;;;5.22;4.78;;;20.70;50.70;;;;;;4946130;29;20651;-60
2022/05/07 03:05:26;;;;;;;4.57;4.18;;;20.70;50.70;;;;;;4947201;28;20631;-59
2022/05/07 03:07:54;;;;;;;3.90;3.65;;;20.70;50.70;;;;;;4946155;28;20035;-58
2022/05/07 03:10:20;;;;;;;5.00;4.50;;;20.70;50.80;;;;;;4947447;29;20050;-59
2022/05/07 03:12:45;;;;;;;4.72;4.30;;;20.70;50.70;;;;;;4944615;29;20404;-57
2022/05/07 03:15:11;;;;;;;5.05;4.47;;;20.70;50.80;;;;;;4945954;28;20480;-61
2022/05/07 03:17:37;;;;;;;4.97;3.90;;;20.70;50.70;;;;;;4946040;29;20039;-61
2022/05/07 03:20:08;;;;;;;5.45;4.07;;;20.70;50.70;;;;;;4946878;29;20130;-58
2022/05/07 03:22:33;;;;;;;4.38;3.97;;;20.70;50.80;;;;;;4947003;28;20050;-61
2022/05/07 03:24:59;;;;;;;5.13;4.13;;;20.70;50.80;;;;;;4951147;28;20027;-58
2022/05/07 03:27:24;;;;;;;4.97;4.07;;;20.70;50.80;;;;;;4946672;28;20043;-58
2022/05/07 03:29:50;;;;;;;4.95;4.55;;;20.70;50.80;;;;;;4946483;28;20102;-62
2022/05/07 03:32:15;;;;;;;4.57;4.18;;;20.70;50.70;;;;;;4945826;28;20053;-60
2022/05/07 03:34:41;;;;;;;4.45;4.05;;;20.70;50.80;;;;;;4944029;28;20062;-59
2022/05/07 03:37:06;;;;;;;5.45;4.30;;;20.60;50.80;;;;;;4953243;28;20321;-58
2022/05/07 03:39:32;;;;;;;4.47;4.07;;;20.70;50.80;;;;;;4947578;28;20085;-58
2022/05/07 03:41:58;;;;;;;5.03;4.68;;;20.70;50.80;;;;;;4946076;28;20364;-59
2022/05/07 03:44:23;;;;;;;5.63;5.13;;;20.70;50.70;;;;;;4944265;28;20467;-59
2022/05/07 03:46:49;;;;;;;5.72;5.18;;;20.70;50.70;;;;;;4942450;28;20414;-60
2022/05/07 03:49:15;;;;;;;5.00;4.50;;;20.70;50.80;;;;;;4944469;28;20126;-58
2022/05/07 03:54:25;;;;;;;4.80;4.38;;;20.70;50.70;;;;;;4946145;29;20058;-60
2022/05/07 03:56:50;;;;;;;4.65;4.25;;;20.60;50.70;;;;;;4944368;29;20043;-61
2022/05/07 03:59:16;;;;;;;5.20;4.80;;;20.70;50.70;;;;;;4946174;29;20574;-58
2022/05/07 04:01:41;;;;;;;5.63;4.93;;;20.60;50.70;;;;;;4942540;28;20539;-61
2022/05/07 04:04:07;;;;;;;4.80;4.40;;;20.60;50.60;;;;;;4943194;28;20496;-60
2022/05/07 04:06:32;;;;;;;4.80;4.30;;;20.70;50.70;;;;;;4943530;29;20102;-58
2022/05/07 04:08:58;;;;;;;4.82;4.40;;;20.70;50.60;;;;;;4946585;28;20042;-59
2022/05/07 04:11:23;;;;;;;5.03;4.60;;;20.60;50.60;;;;;;4946596;28;20082;-57
2022/05/07 04:13:49;;;;;;;5.43;4.88;;;20.60;50.60;;;;;;4944795;29;20031;-58
2022/05/07 04:16:15;;;;;;;4.85;4.38;;;20.70;50.60;;;;;;4946744;28;20468;-58
2022/05/07 04:18:40;;;;;;;4.72;4.32;;;20.60;50.50;;;;;;4945161;28;20043;-59
2022/05/07 04:21:06;;;;;;;5.68;4.68;;;20.60;50.50;;;;;;4939792;28;20047;-59
2022/05/07 04:23:32;;;;;;;4.88;4.38;;;20.60;50.50;;;;;;4944182;28;20554;-59
2022/05/07 04:25:58;;;;;;;4.53;4.13;;;20.60;50.60;;;;;;4945866;28;20372;-59
2022/05/07 04:28:24;;;;;;;4.70;4.30;;;20.60;50.50;;;;;;4944646;28;20039;-62
2022/05/07 04:30:49;;;;;;;4.90;4.50;;;20.60;50.50;;;;;;4944579;29;20101;-59
2022/05/07 04:33:18;;;;;;;5.00;4.40;;;20.60;50.50;;;;;;4944882;29;20746;-60
2022/05/07 04:35:43;;;;;;;4.95;4.55;;;20.60;50.50;;;;;;4945340;29;20047;-59
2022/05/07 04:38:09;;;;;;;4.55;4.25;;;20.60;50.60;;;;;;4943513;29;20097;-58
2022/05/07 04:40:34;;;;;;;6.35;4.95;;;20.60;50.60;;;;;;4945843;28;20039;-60
2022/05/07 04:43:00;;;;;;;4.88;4.28;;;20.60;50.60;;;;;;4945752;28;20043;-60
2022/05/07 04:45:27;;;;;;;5.03;4.63;;;20.60;50.60;;;;;;4944414;29;20032;-59
2022/05/07 04:47:53;;;;;;;5.32;4.57;;;20.60;50.60;;;;;;4943687;29;20042;-58
2022/05/07 04:50:18;;;;;;;5.03;4.53;;;20.60;50.60;;;;;;4945826;28;20098;-58
2022/05/07 04:52:44;;;;;;;4.72;4.32;;;20.60;50.60;;;;;;4943603;29;20039;-58
2022/05/07 04:55:10;;;;;;;5.25;4.75;;;20.60;50.70;;;;;;4943440;29;20043;-59
2022/05/07 04:57:36;;;;;;;5.43;4.97;;;20.60;50.60;;;;;;4946174;28;20130;-63
2022/05/07 05:00:06;;;;;;;5.03;4.63;;;20.60;50.60;;;;;;4942736;28;20759;-60
2022/05/07 05:02:31;;;;;;;4.50;4.10;;;20.60;50.60;;;;;;4944389;28;20395;-58
2022/05/07 05:04:57;;;;;;;6.07;4.65;;;20.60;50.50;;;;;;4944483;28;20031;-57
2022/05/07 05:07:23;;;;;;;5.05;4.55;;;20.60;50.60;;;;;;4946518;28;21169;-59
2022/05/07 05:09:48;;;;;;;6.07;4.63;;;20.60;50.50;;;;;;4944382;28;20423;-59
2022/05/07 05:12:14;;;;;;;5.53;4.88;;;20.60;50.60;;;;;;4946007;29;20043;-61
2022/05/07 05:17:24;;;;;;;5.25;4.75;;;20.60;50.60;;;;;;4944525;29;20126;-60
2022/05/07 05:19:50;;;;;;;4.90;4.50;;;20.60;50.70;;;;;;4943207;28;20053;-61
2022/05/07 05:22:15;;;;;;;5.05;4.63;;;20.60;50.70;;;;;;4945903;28;20122;-59
2022/05/07 05:24:41;;;;;;;5.75;4.40;;;20.50;50.60;;;;;;4937033;28;20039;-58
2022/05/07 05:27:06;;;;;;;5.50;4.90;;;20.50;50.60;;;;;;4943997;28;20500;-60
2022/05/07 05:29:32;;;;;;;4.72;4.32;;;20.60;50.80;;;;;;4943002;29;20359;-57
2022/05/07 05:31:59;;;;;;;5.43;4.88;;;20.60;50.80;;;;;;4943879;29;20121;-59
2022/05/07 05:34:25;;;;;;;4.82;4.40;;;20.50;50.70;;;;;;4943048;29;20092;-57
2022/05/07 05:36:50;;;;;;;5.38;4.40;;;20.50;50.70;;;;;;4943086;28;20047;-58
2022/05/07 05:39:16;;;;;;;5.50;4.43;;;20.50;51.20;;;;;;4946346;29;20495;-58
2022/05/07 05:41:44;;;;;;;5.78;4.15;;;20.50;51.40;;;;;;4945388;28;20051;-58
2022/05/07 05:44:10;;;;;;;5.05;4.55;;;20.60;51.60;;;;;;4946713;28;20035;-60
2022/05/07 05:46:35;;;;;;;5.18;4.65;;;20.50;51.50;;;;;;4945440;29;20062;-57
2022/05/07 05:49:01;;;;;;;6.15;5.65;;;20.60;51.70;;;;;;4947735;28;20472;-58
2022/05/07 05:51:27;;;;;;;5.65;5.15;;;20.60;51.60;;;;;;4944566;28;20043;-57
2022/05/07 05:53:52;;;;;;;7.15;6.45;;;20.60;51.70;;;;;;4945250;29;20821;-57
2022/05/07 05:56:18;;;;;;;9.55;7.18;;;20.60;52.00;;;;;;4943718;28;20058;-60
2022/05/07 05:58:44;;;;;;;11.48;7.57;;;20.60;52.10;;;;;;4944469;28;20113;-60
2022/05/07 06:01:11;;;;;;;8.98;8.02;;;20.60;52.20;;;;;;4944917;28;20043;-58
2022/05/07 06:03:37;;;;;;;9.57;7.85;;;20.60;52.30;;;;;;4942211;29;20039;-57
2022/05/07 06:06:03;;;;;;;8.10;7.20;;;20.60;52.40;;;;;;4942794;29;20117;-57
2022/05/07 06:08:30;;;;;;;10.73;8.15;;;20.70;52.30;;;;;;4945824;28;20039;-59
2022/05/07 06:10:57;;;;;;;10.35;7.20;;;20.70;52.40;;;;;;4946008;28;20055;-60
2022/05/07 06:13:24;;;;;;;8.18;7.43;;;20.60;52.00;;;;;;4940533;29;20514;-57
2022/05/07 06:15:52;;;;;;;10.75;8.05;;;20.60;51.90;;;;;;4942473;29;20499;-59
2022/05/07 06:18:22;;;;;;;10.27;8.02;;;20.60;51.90;;;;;;4948143;28;20047;-61
2022/05/07 06:20:49;;;;;;;9.13;8.32;;;20.70;52.10;;;;;;4944925;28;20062;-60
2022/05/07 06:23:17;;;;;;;11.55;9.20;;;20.70;52.20;;;;;;4946718;28;20065;-59
2022/05/07 06:28:28;;;;;;;10.07;8.90;;;20.70;52.40;;;;;;4946964;28;20098;-57
2022/05/07 06:30:53;;;;;;;10.00;9.10;;;20.60;52.40;;;;;;4945880;28;20503;-59
2022/05/07 06:33:23;;;;;;;9.45;8.52;;;20.60;52.40;;;;;;4908131;28;1133913;-60
2022/05/07 06:35:49;;;;;;;12.82;9.05;;;20.70;53.20;;;;;;4945538;29;20582;-60
2022/05/07 06:38:16;;;;;;;10.18;9.18;;;20.60;52.30;;;;;;4946624;28;20086;-57
2022/05/07 06:40:42;;;;;;;10.38;9.35;;;20.70;52.40;;;;;;4947253;28;20097;-58
2022/05/07 06:43:07;;;;;;;10.57;9.52;;;20.70;52.50;;;;;;4946857;29;20043;-60
2022/05/07 06:45:33;;;;;;;10.15;9.00;;;20.70;52.40;;;;;;4945472;28;20877;-59
2022/05/07 06:47:59;;;;;;;11.30;10.10;;;20.70;52.40;;;;;;4944992;28;20048;-60
2022/05/07 06:50:25;;;;;;;11.32;10.18;;;20.70;52.30;;;;;;4946044;29;20106;-58
2022/05/07 06:52:51;;;;;;;9.95;9.00;;;20.70;52.40;;;;;;4944602;29;20043;-57
2022/05/07 06:55:18;;;;;;;10.85;9.75;;;20.70;52.00;;;;;;4946116;28;20102;-59
2022/05/07 06:57:44;;;;;;;11.00;9.68;;;20.70;51.80;;;;;;4946527;29;20153;-60
2022/05/07 07:00:11;;;;;;;12.68;11.45;;;20.60;51.60;;;;;;4945523;29;20115;-61
2022/05/07 07:02:38;;;;;;;14.65;12.43;;;20.60;52.50;;;;;;4944261;28;20053;-61
2022/05/07 07:05:04;;;;;;;14.70;11.68;;;20.60;51.90;;;;;;4945576;28;20051;-60
2022/05/07 07:07:30;;;;;;;11.65;10.45;;;20.60;51.80;;;;;;4944958;28;20959;-59
2022/05/07 07:09:56;;;;;;;11.75;10.63;;;20.60;52.30;;;;;;4947071;29;20082;-59
2022/05/07 07:12:22;;;;;;;11.15;10.02;;;20.60;51.40;;;;;;4945953;28;20118;-60
2022/05/07 07:14:48;;;;;;;10.85;9.70;;;20.60;51.50;;;;;;4943423;29;20038;-59
2022/05/07 07:17:16;;;;;;;11.52;10.02;;;20.60;51.60;;;;;;4944222;28;20161;-58
2022/05/07 07:19:42;;;;;;;10.55;9.40;;;20.60;51.90;;;;;;4947432;28;20043;-60
2022/05/07 07:22:08;;;;;;;12.13;9.13;;;20.60;52.00;;;;;;4945707;28;20042;-60
2022/05/07 07:24:33;;;;;;;10.80;9.70;;;20.60;52.00;;;;;;4961410;28;20050;-58
2022/05/07 07:26:59;;;;;;;12.10;10.00;;;20.60;52.50;;;;;;4946075;28;20039;-61
2022/05/07 07:29:25;;;;;;;12.88;10.13;;;20.60;52.80;;;;;;4943898;28;20039;-58
2022/05/07 07:31:51;;;;;;;10.77;9.68;;;20.60;52.90;;;;;;4945987;28;20900;-58
2022/05/07 07:34:17;;;;;;;12.70;10.10;;;20.60;52.90;;;;;;4944398;29;20055;-60
2022/05/07 07:36:46;;;;;;;13.30;9.38;;;20.60;53.00;;;;;;4960119;28;20051;-62
2022/05/07 07:39:11;;;;;;;11.05;8.77;;;20.70;53.20;;;;;;4943238;28;20933;-61
2022/05/07 07:41:37;;;;;;;11.43;8.77;;;20.70;53.10;;;;;;4946954;28;20047;-61
2022/05/07 07:44:02;;;;;;;9.75;8.60;;;20.70;53.20;;;;;;4945701;28;20067;-60
2022/05/07 07:49:12;;;;;;;11.07;7.80;;;20.70;53.30;;;;;;4943895;28;20043;-58
2022/05/07 07:51:39;;;;;;;9.05;7.65;;;20.70;53.40;;;;;;4940282;28;20053;-59
2022/05/07 07:54:05;;;;;;;8.05;7.25;;;20.70;53.40;;;;;;4942446;28;20066;-59
2022/05/07 07:56:30;;;;;;;10.70;7.75;;;20.70;53.30;;;;;;4946358;29;20514;-59
2022/05/07 07:58:56;;;;;;;9.50;7.40;;;20.70;53.10;;;;;;4945781;29;20042;-60
2022/05/07 08:01:22;;;;;;;11.02;7.18;;;20.70;53.00;;;;;;4959336;28;20039;-60
2022/05/07 08:03:47;;;;;;;8.32;7.53;;;20.70;53.10;;;;;;4945461;28;20488;-59
2022/05/07 08:06:13;;;;;;;10.80;7.25;;;20.70;53.30;;;;;;4945546;28;20047;-59
2022/05/07 08:11:42;;;;;;;9.13;6.38;;;20.70;53.40;;;;;;4946806;28;20633;-59
2022/05/07 08:14:08;;;;;;;10.85;6.63;;;20.70;53.40;;;;;;4944891;29;20046;-59
2022/05/07 08:16:35;;;;;;;10.23;7.22;;;20.70;53.40;;;;;;4945563;28;20039;-61
2022/05/07 08:19:01;;;;;;;9.27;6.60;;;20.70;53.30;;;;;;4943070;29;20042;-60
2022/05/07 08:21:26;;;;;;;12.02;7.80;;;20.70;53.40;;;;;;4944031;29;20101;-60
2022/05/07 08:23:52;;;;;;;10.68;7.50;;;20.70;53.90;;;;;;4945147;28;20112;-59
2022/05/07 08:26:18;;;;;;;11.48;7.03;;;20.70;54.10;;;;;;4946206;28;20039;-60
2022/05/07 08:28:44;;;;;;;10.90;7.03;;;20.70;54.20;;;;;;4941506;28;20035;-58
2022/05/07 08:31:10;;;;;;;12.98;7.35;;;20.80;54.40;;;;;;4943804;29;20675;-61
2022/05/07 08:33:39;;;;;;;10.73;7.50;;;20.80;54.30;;;;;;4945934;28;20487;-58
2022/05/07 08:36:04;;;;;;;9.27;6.90;;;20.80;54.30;;;;;;4943606;29;20043;-59
2022/05/07 08:38:30;;;;;;;9.45;6.55;;;20.80;54.40;;;;;;4945085;28;20646;-61
2022/05/07 08:40:59;;;;;;;7.53;6.00;;;20.80;54.40;;;;;;4945155;28;20047;-60
2022/05/07 08:43:24;;;;;;;8.55;7.15;;;20.80;54.40;;;;;;4945901;28;20041;-59
2022/05/07 08:45:50;;;;;;;10.95;6.32;;;20.80;54.20;;;;;;4946047;28;20503;-60
2022/05/07 08:48:15;;;;;;;12.30;7.03;;;20.80;54.30;;;;;;4951055;28;20452;-61
2022/05/07 08:50:43;;;;;;;14.95;9.18;;;20.80;54.50;;;;;;4945009;28;20102;-61
2022/05/07 08:53:09;;;;;;;12.60;9.18;;;20.80;54.80;;;;;;4942271;28;20074;-59
2022/05/07 08:55:34;;;;;;;11.30;8.15;;;20.80;55.00;;;;;;4941613;29;20075;-62
2022/05/07 08:58:01;;;;;;;12.32;9.43;;;20.80;55.10;;;;;;4944760;28;20526;-61
2022/05/07 09:00:29;;;;;;;10.93;8.68;;;20.80;55.10;;;;;;4944582;29;20055;-59
2022/05/07 09:02:59;;;;;;;9.48;8.27;;;20.80;55.30;;;;;;4944238;28;20114;-60
2022/05/07 09:05:32;;;;;;;12.77;9.38;;;20.80;55.50;;;;;;4942797;29;20449;-60
2022/05/07 09:07:58;;;;;;;10.90;9.10;;;20.80;55.60;;;;;;4944168;29;20042;-59
2022/05/07 09:10:29;;;;;;;12.43;9.70;;;20.80;55.60;;;;;;4942426;29;20089;-60
2022/05/07 09:13:11;;;;;;;13.20;9.32;;;20.80;55.70;;;;;;4943448;28;20047;-58
2022/05/07 09:15:55;;;;;;;14.07;9.38;;;20.80;55.90;;;;;;4945541;29;20047;-62
2022/05/07 09:18:22;;;;;;;12.20;9.35;;;20.80;56.40;;;;;;4945269;29;20051;-61
2022/05/07 09:21:23;;;;;;;11.48;8.40;;;20.80;56.20;;;;;;4944467;29;20074;-59
2022/05/07 09:23:58;;;;;;;;;;;20.90;56.50;;;;;;4944870;29;20063;-60
2022/05/07 09:26:27;;;;;;;13.75;8.43;;;20.80;56.80;;;;;;4941655;28;19973;-59
2022/05/07 09:28:53;;;;;;;10.68;8.38;;;20.80;56.40;;;;;;4946247;28;20082;-59
2022/05/07 09:31:30;;;;;;;11.40;8.65;;;20.80;56.70;;;;;;4945679;28;20492;-60
2022/05/07 09:35:47;;;;;;;11.85;8.25;;;20.90;56.80;;;;;;4946363;28;20161;-60
2022/05/07 09:36:42;;;;;;;9.18;7.60;;;20.90;56.90;;;;;;4945445;29;20039;-60
2022/05/07 09:39:12;;;;;;;13.45;8.77;;;20.90;56.90;;;;;;4942272;29;20047;-60
2022/05/07 09:41:38;;;;;;;11.23;8.23;;;20.90;57.00;;;;;;4941510;29;20047;-60
2022/05/07 09:44:04;;;;;;;10.48;8.60;;;20.90;56.90;;;;;;4944864;29;20035;-60
2022/05/07 09:46:32;;;;;;;11.68;8.80;;;20.90;56.80;;;;;;4944126;28;20035;-61
2022/05/07 09:49:00;;;;;;;14.50;8.88;;;20.90;56.80;;;;;;4945289;29;20051;-60
2022/05/07 09:51:28;;;;;;;10.90;8.90;;;20.90;56.70;;;;;;4945185;28;20042;-60
2022/05/07 09:59:22;;;;;;;13.02;10.70;;;20.90;56.30;;;;;;4943561;29;20073;-60
2022/05/07 10:01:55;;;;;;;14.90;10.13;;;20.90;56.20;;;;;;4945701;28;20035;-62
2022/05/07 10:04:35;;;;;;;15.32;11.70;;;20.90;56.20;;;;;;4951045;28;20058;-60
2022/05/07 10:07:00;;;;;;;17.90;11.80;;;20.90;56.30;;;;;;4943008;28;20047;-60
2022/05/07 10:09:41;;;;;;;14.85;10.30;;;20.90;56.30;;;;;;4944546;28;20043;-63
2022/05/07 10:12:07;;;;;;;;;;;20.90;56.20;;;;;;4944126;28;20470;-60
2022/05/07 10:14:33;;;;;;;12.52;10.45;;;20.80;56.40;;;;;;4945136;28;20024;-60
2022/05/07 10:17:01;;;;;;;14.40;10.05;;;20.80;56.20;;;;;;4944741;28;20070;-60
2022/05/07 10:19:39;;;;;;;11.55;9.43;;;20.80;56.30;;;;;;4943391;28;20912;-59
2022/05/07 10:22:16;;;;;;;16.27;10.20;;;20.80;56.20;;;;;;4943207;29;20420;-59
2022/05/07 10:24:42;;;;;;;12.02;9.30;;;20.90;56.40;;;;;;4948343;28;20067;-59
2022/05/07 10:27:31;;;;;;;14.48;9.57;;;20.90;56.40;;;;;;4948210;28;20035;-58
2022/05/07 10:30:07;;;;;;;13.88;9.90;;;20.90;56.40;;;;;;4948333;29;20040;-59
2022/05/07 10:32:57;;;;;;;12.10;9.63;;;20.90;56.40;;;;;;4948249;29;20102;-59
2022/05/07 10:35:42;;;;;;;12.68;9.93;;;20.90;56.60;;;;;;4947659;29;20051;-59
2022/05/07 10:38:09;;;;;;;12.20;8.90;;;20.90;56.50;;;;;;4947550;28;20042;-60
2022/05/07 10:40:35;;;;;;;13.45;9.65;;;20.90;56.60;;;;;;4947948;28;20082;-59
2022/05/07 10:43:00;;;;;;;12.90;9.70;;;20.90;56.60;;;;;;4947175;29;20027;-60
2022/05/07 10:45:27;;;;;;;12.60;9.65;;;20.90;56.70;;;;;;4946841;29;20055;-60
2022/05/07 10:47:57;;;;;;;17.00;9.35;;;20.90;56.70;;;;;;4947970;28;20039;-59
2022/05/07 10:50:23;;;;;;;10.93;9.23;;;20.90;56.70;;;;;;4947367;28;20957;-60
2022/05/07 10:52:56;;;;;;;14.20;9.77;;;20.90;56.70;;;;;;4948358;28;20395;-59
2022/05/07 10:55:26;;;;;;;13.55;9.30;;;20.90;56.70;;;;;;4946773;29;20070;-60
2022/05/07 10:57:55;;;;;;;13.93;8.93;;;20.90;56.70;;;;;;4948474;28;20075;-59
2022/05/07 11:00:22;;;;;;;10.35;8.77;;;20.90;56.70;;;;;;4947004;29;20043;-59
2022/05/07 11:02:50;;;;;;;14.77;8.95;;;20.90;56.70;;;;;;4946840;29;20031;-60
2022/05/07 11:05:17;;;;;;;10.52;8.70;;;20.90;56.60;;;;;;4947137;29;20043;-60
2022/05/07 11:07:43;;;;;;;12.63;8.63;;;20.90;56.60;;;;;;4943920;28;21141;-59
2022/05/07 11:10:10;;;;;;;11.70;8.93;;;20.90;56.60;;;;;;4941078;29;20042;-59
2022/05/07 11:12:38;;;;;;;12.40;8.32;;;20.90;56.70;;;;;;4943422;29;20115;-59
2022/05/07 11:15:08;;;;;;;11.93;8.82;;;20.90;56.70;;;;;;4946296;28;20237;-61
2022/05/07 11:17:40;;;;;;;11.48;8.40;;;20.90;56.80;;;;;;4945786;29;20396;-60
2022/05/07 11:20:06;;;;;;;9.23;8.05;;;20.90;56.80;;;;;;4948676;28;20047;-60
2022/05/07 11:22:32;;;;;;;10.48;8.60;;;20.90;56.70;;;;;;4943849;29;20039;-60
2022/05/07 11:24:59;;;;;;;9.00;7.25;;;20.90;56.80;;;;;;4946893;28;20054;-60
2022/05/07 11:27:29;;;;;;;9.50;6.93;;;20.90;56.70;;;;;;4946548;29;20106;-60
2022/05/07 11:29:56;;;;;;;13.63;7.93;;;20.90;56.60;;;;;;4943765;29;20074;-60
2022/05/07 11:32:22;;;;;;;14.80;7.13;;;20.90;57.10;;;;;;4944401;29;20381;-60
2022/05/07 11:34:47;;;;;;;7.93;6.82;;;21.00;56.50;;;;;;4944621;28;20051;-61
2022/05/07 11:37:19;;;;;;;8.55;7.07;;;20.90;56.40;;;;;;4944594;28;20043;-60
2022/05/07 11:39:51;;;;;;;17.98;7.78;;;21.00;56.40;;;;;;4944558;29;20058;-61
2022/05/07 11:42:40;;;;;;;9.32;6.22;;;21.00;56.40;;;;;;4947575;29;20106;-60
2022/05/07 11:45:26;;;;;;;14.10;6.78;;;21.00;56.40;;;;;;4961473;28;20051;-60
2022/05/07 11:47:55;;;;;;;7.07;6.10;;;21.00;56.50;;;;;;4944265;29;20046;-59
2022/05/07 11:50:32;;;;;;;10.23;6.35;;;21.00;56.50;;;;;;4945087;29;20186;-61
2022/05/07 11:53:09;;;;;;;6.95;5.90;;;20.90;56.40;;;;;;4947653;29;20047;-60
2022/05/07 11:55:34;;;;;;;8.30;6.97;;;21.00;57.20;;;;;;4945957;28;20078;-59
2022/05/07 11:58:20;;;;;;;6.95;6.07;;;21.00;56.50;;;;;;4944738;29;20455;-61
2022/05/07 12:00:47;;;;;;;8.90;6.28;;;21.00;56.50;;;;;;4946119;28;20047;-65
2022/05/07 12:03:23;;;;;;;8.43;6.18;;;21.00;56.50;;;;;;4945846;29;20039;-60
2022/05/07 12:05:52;;;;;;;7.72;6.20;;;21.00;56.40;;;;;;4944781;29;20039;-59
2022/05/07 12:08:23;;;;;;;8.25;5.70;;;21.00;56.50;;;;;;4942783;28;20047;-59
2022/05/07 12:10:52;;;;;;;7.35;5.22;;;21.00;56.30;;;;;;4946518;28;20047;-60
2022/05/07 12:13:18;;;;;;;9.32;6.05;;;21.00;56.40;;;;;;4945402;28;20051;-61
2022/05/07 12:18:30;;;;;;;6.60;5.60;;;21.00;56.30;;;;;;4943645;28;20047;-61
2022/05/07 12:20:56;;;;;;;9.50;5.40;;;21.00;56.30;;;;;;4946746;29;20516;-64
2022/05/07 12:31:34;;;;;;;6.95;5.30;;;21.00;56.20;;;;;;4945983;29;20085;-61
2022/05/07 12:34:00;;;;;;;6.95;5.30;;;21.10;56.40;;;;;;4943108;28;20744;-60
2022/05/07 12:36:29;;;;;;;7.97;5.30;;;21.00;56.30;;;;;;4945406;28;20035;-61
2022/05/07 12:38:59;;;;;;;6.85;5.10;;;21.10;56.30;;;;;;4945838;29;20046;-61
2022/05/07 12:41:26;;;;;;;8.23;5.50;;;21.10;56.20;;;;;;4946265;29;20362;-60
2022/05/07 12:43:52;;;;;;;6.47;5.00;;;21.10;56.20;;;;;;4942914;28;20060;-59
2022/05/07 12:46:19;;;;;;;9.63;5.43;;;21.10;56.50;;;;;;4944285;28;20574;-59
2022/05/07 12:48:44;;;;;;;6.57;5.30;;;21.10;56.70;;;;;;4943159;29;20043;-59
2022/05/07 12:51:10;;;;;;;7.03;5.15;;;21.10;56.90;;;;;;4944999;28;20042;-61
2022/05/07 12:53:36;;;;;;;8.10;5.38;;;21.10;56.90;;;;;;4945480;29;20039;-59
2022/05/07 12:56:03;;;;;;;8.93;5.25;;;21.10;57.00;;;;;;4942564;28;20121;-60
2022/05/07 12:58:28;;;;;;;7.13;5.85;;;21.10;56.90;;;;;;4945155;29;20519;-61
2022/05/07 13:00:54;;;;;;;9.23;7.63;;;21.20;56.90;;;;;;4943833;29;20051;-60
2022/05/07 13:03:19;;;;;;;8.15;7.35;;;21.10;56.80;;;;;;4944500;29;20054;-61
2022/05/07 13:05:45;;;;;;;11.27;9.93;;;21.10;56.70;;;;;;4946444;29;20428;-59
2022/05/07 13:08:11;;;;;;;12.68;8.60;;;21.20;56.70;;;;;;4943959;28;20054;-59
2022/05/07 13:10:37;;;;;;;11.25;9.48;;;21.10;56.90;;;;;;4943769;28;20443;-60
2022/05/07 13:13:03;;;;;;;12.82;8.73;;;21.20;56.90;;;;;;4945386;28;20047;-59
2022/05/07 13:15:29;;;;;;;11.00;9.30;;;21.20;57.00;;;;;;4939026;28;20490;-61
2022/05/07 13:17:57;;;;;;;11.00;8.95;;;21.20;57.00;;;;;;4944912;28;20173;-61
2022/05/07 13:20:23;;;;;;;10.60;8.52;;;21.20;57.10;;;;;;4945268;28;20073;-60
2022/05/07 13:22:49;;;;;;;14.75;8.73;;;21.20;57.20;;;;;;4943678;28;20036;-59
2022/05/07 13:25:14;;;;;;;18.98;16.83;;;21.20;57.90;;;;;;4942075;28;20444;-59